createdAt,value
2022-12-08T00:16:48.755Z,0.10
2022-12-08T00:18:50.713Z,0.50
2022-12-08T00:20:57.202Z,0.30
2022-12-08T00:22:59.083Z,0.20
2022-12-08T00:25:01.038Z,0.20
2022-12-08T00:27:03.084Z,0.30
2022-12-08T00:29:05.648Z,0.40
2022-12-08T00:31:09.623Z,0.30
2022-12-08T00:33:12.575Z,0.10
2022-12-08T00:35:14.645Z,0.20
2022-12-08T00:37:16.400Z,0.10
2022-12-08T00:39:18.755Z,0.10
2022-12-08T00:41:43.538Z,0.20
2022-12-08T00:43:45.439Z,0.50
2022-12-08T00:45:47.464Z,0.30
2022-12-08T00:47:49.373Z,0.30
2022-12-08T00:49:51.311Z,0.10
2022-12-08T00:51:53.323Z,0.10
2022-12-08T00:53:55.069Z,0.10
2022-12-08T00:55:56.920Z,0.20
2022-12-08T00:58:01.343Z,0.10
2022-12-08T01:00:04.120Z,0.20
2022-12-08T01:02:06.271Z,0.20
2022-12-08T01:04:11.904Z,0.20
2022-12-08T01:06:13.856Z,0.20
2022-12-08T01:08:15.727Z,0.10
2022-12-08T01:10:17.890Z,0.10
2022-12-08T01:12:19.822Z,0.10
2022-12-08T01:14:21.873Z,0.30
2022-12-08T01:16:24.919Z,0.20
2022-12-08T01:18:30.535Z,0.10
2022-12-08T01:20:33.394Z,0.10
2022-12-08T01:22:36.165Z,0.10
2022-12-08T01:24:38.053Z,0.10
2022-12-08T01:26:40.564Z,0.10
2022-12-08T01:28:43.406Z,0.20
2022-12-08T01:30:45.431Z,0.20
2022-12-08T01:32:47.535Z,0.30
2022-12-08T01:34:49.429Z,0.20
2022-12-08T01:36:51.372Z,0.10
2022-12-08T01:38:54.382Z,0.10
2022-12-08T01:40:56.229Z,0.20
2022-12-08T01:42:58.118Z,0.10
2022-12-08T01:45:02.985Z,0.10
2022-12-08T01:47:05.052Z,0.30
2022-12-08T01:49:12.728Z,0.30
2022-12-08T01:51:14.911Z,0.20
2022-12-08T01:53:24.072Z,0.20
2022-12-08T01:55:33.106Z,0.20
2022-12-08T01:57:41.525Z,0.20
2022-12-08T01:59:48.397Z,0.20
2022-12-08T04:17:56.757Z,0.40
2022-12-08T04:19:58.620Z,0.40
2022-12-08T04:22:00.479Z,0.40
2022-12-08T04:24:02.685Z,0.40
2022-12-08T04:26:05.491Z,0.40
2022-12-08T04:28:07.432Z,0.40
2022-12-08T04:30:09.847Z,0.40
2022-12-08T04:32:11.692Z,0.40
2022-12-08T04:34:13.641Z,0.40
2022-12-08T04:36:15.716Z,0.30
2022-12-08T04:38:17.496Z,0.40
2022-12-08T04:40:19.633Z,0.30
2022-12-08T04:42:21.486Z,0.30
2022-12-08T04:44:23.313Z,0.40
2022-12-08T04:46:25.252Z,0.40
2022-12-08T04:48:27.163Z,0.40
2022-12-08T04:50:29.020Z,0.50
2022-12-08T04:52:30.863Z,0.50
2022-12-08T04:54:32.886Z,0.50
2022-12-08T04:56:34.595Z,0.50
2022-12-08T04:58:36.454Z,0.40
2022-12-08T05:00:38.333Z,0.40
2022-12-08T05:02:40.550Z,0.40
2022-12-08T05:04:42.622Z,0.40
2022-12-08T05:06:44.379Z,0.40
2022-12-08T05:08:46.251Z,0.40
2022-12-08T05:10:48.120Z,0.40
2022-12-08T05:12:50.006Z,0.50
2022-12-08T05:14:52.008Z,0.40
2022-12-08T05:16:53.731Z,0.40
2022-12-08T05:18:55.651Z,0.50
2022-12-08T05:20:57.556Z,0.50
2022-12-08T05:22:59.465Z,0.50
2022-12-08T05:25:01.580Z,0.50
2022-12-08T05:27:03.655Z,0.50
2022-12-08T05:29:05.453Z,0.50
2022-12-08T05:31:07.405Z,0.50
2022-12-08T05:33:09.188Z,0.50
2022-12-08T05:35:11.206Z,0.50
2022-12-08T05:37:12.969Z,0.60
2022-12-08T05:39:15.362Z,0.50
2022-12-08T05:41:21.043Z,0.50
2022-12-08T05:43:23.012Z,0.60
2022-12-08T05:45:24.800Z,0.60
2022-12-08T05:47:28.117Z,0.60
2022-12-08T05:49:31.669Z,0.50
2022-12-08T05:51:33.749Z,0.50
2022-12-08T05:53:35.572Z,0.50
2022-12-08T05:55:37.455Z,0.50
2022-12-08T05:57:39.303Z,0.50
2022-12-08T05:59:41.186Z,0.50
2022-12-08T06:01:43.213Z,0.60
2022-12-08T06:03:44.975Z,0.60
2022-12-08T08:13:39.746Z,1.90
2022-12-08T08:15:41.542Z,1.70
2022-12-08T08:17:43.485Z,1.80
2022-12-08T08:19:46.659Z,1.70
2022-12-08T08:21:48.526Z,1.70
2022-12-08T08:23:50.368Z,1.60
2022-12-08T08:25:52.440Z,1.60
2022-12-08T08:27:54.356Z,1.50
2022-12-08T08:29:56.268Z,1.50
2022-12-08T08:31:58.170Z,1.70
2022-12-08T08:34:04.963Z,1.80
2022-12-08T08:36:08.532Z,1.90
2022-12-08T08:38:10.492Z,1.80
2022-12-08T08:40:12.729Z,1.80
2022-12-08T08:42:14.616Z,1.80
2022-12-08T08:44:16.496Z,1.90
2022-12-08T08:46:18.424Z,1.80
2022-12-08T08:48:20.272Z,1.90
2022-12-08T08:50:22.445Z,2.10
2022-12-08T08:52:24.363Z,2.00
2022-12-08T08:54:28.196Z,1.80
2022-12-08T08:56:30.204Z,1.80
2022-12-08T08:58:31.972Z,1.70
2022-12-08T09:00:33.897Z,1.60
2022-12-08T09:02:36.929Z,1.70
2022-12-08T09:04:38.956Z,1.70
2022-12-08T09:06:40.784Z,1.70
2022-12-08T09:08:43.935Z,1.80
2022-12-08T09:10:45.927Z,1.80
2022-12-08T09:12:47.640Z,1.80
2022-12-08T09:14:49.634Z,1.80
2022-12-08T09:16:51.401Z,1.80
2022-12-08T09:18:53.695Z,1.70
2022-12-08T09:20:56.113Z,1.60
2022-12-08T09:22:57.990Z,1.70
2022-12-08T09:25:00.257Z,1.60
2022-12-08T09:27:02.203Z,1.60
2022-12-08T09:29:04.109Z,1.60
2022-12-08T09:31:06.225Z,1.50
2022-12-08T09:33:08.143Z,1.40
2022-12-08T09:35:10.258Z,1.30
2022-12-08T09:37:12.194Z,1.60
2022-12-08T09:39:14.188Z,1.50
2022-12-08T09:41:22.614Z,1.40
2022-12-08T09:43:47.791Z,1.40
2022-12-08T09:45:51.837Z,1.40
2022-12-08T09:48:15.137Z,1.60
2022-12-08T09:50:32.190Z,1.70
2022-12-08T09:52:41.995Z,1.70
2022-12-08T09:54:44.098Z,1.80
2022-12-08T09:56:47.556Z,1.70
2022-12-08T09:59:01.735Z,1.70
2022-12-08T10:01:03.678Z,1.70
2022-12-08T10:03:16.444Z,1.60
2022-12-08T10:05:18.978Z,1.60
2022-12-08T12:15:17.702Z,1.70
2022-12-08T12:17:30.140Z,1.60
2022-12-08T12:19:38.614Z,1.50
2022-12-08T12:21:44.701Z,1.40
2022-12-08T12:23:53.810Z,1.40
2022-12-08T12:26:01.232Z,1.40
2022-12-08T12:28:07.076Z,1.40
2022-12-08T12:30:20.166Z,1.50
2022-12-08T12:32:23.654Z,1.50
2022-12-08T12:34:33.032Z,1.50
2022-12-08T12:36:59.133Z,1.40
2022-12-08T12:39:01.594Z,1.40
2022-12-08T12:41:06.088Z,1.50
2022-12-08T12:43:29.510Z,1.50
2022-12-08T12:45:34.207Z,1.40
2022-12-08T12:47:58.960Z,1.30
2022-12-08T12:50:08.376Z,1.30
2022-12-08T12:52:10.485Z,1.30
2022-12-08T12:54:25.482Z,1.20
2022-12-08T12:56:48.280Z,1.30
2022-12-08T12:58:54.359Z,1.30
2022-12-08T13:01:14.052Z,1.30
2022-12-08T13:03:17.754Z,1.30
2022-12-08T13:05:49.554Z,1.30
2022-12-08T13:07:51.469Z,1.30
2022-12-08T13:10:20.220Z,1.40
2022-12-08T13:12:24.531Z,1.30
2022-12-08T13:14:28.510Z,1.30
2022-12-08T13:16:39.586Z,1.20
2022-12-08T13:18:49.472Z,1.30
2022-12-08T13:21:09.352Z,1.30
2022-12-08T13:23:39.479Z,1.40
2022-12-08T13:25:44.054Z,1.40
2022-12-08T13:27:53.668Z,1.30
2022-12-08T13:30:46.928Z,1.30
2022-12-08T13:33:18.260Z,1.30
2022-12-08T13:35:20.599Z,1.30
2022-12-08T13:37:26.530Z,1.30
2022-12-08T13:39:40.081Z,1.40
2022-12-08T13:41:49.427Z,1.40
2022-12-08T13:55:01.371Z,1.30
2022-12-08T13:59:09.526Z,1.30
2022-12-08T14:01:22.093Z,1.20
2022-12-08T16:17:16.398Z,1.50
2022-12-08T16:19:19.253Z,1.40
2022-12-08T16:21:53.273Z,1.40
2022-12-08T16:23:45.526Z,1.50
2022-12-08T16:26:17.180Z,1.40
2022-12-08T16:28:45.268Z,1.40
2022-12-08T16:30:32.225Z,1.40
2022-12-08T16:32:34.033Z,1.40
2022-12-08T16:34:35.902Z,1.40
2022-12-08T16:36:37.852Z,1.50
2022-12-08T16:38:39.839Z,1.50
2022-12-08T16:41:04.291Z,1.40
2022-12-08T16:43:06.178Z,1.50
2022-12-08T16:45:15.429Z,1.50
2022-12-08T16:47:17.320Z,1.50
2022-12-08T16:49:19.334Z,1.50
2022-12-08T16:51:26.485Z,1.50
2022-12-08T16:53:28.981Z,1.50
2022-12-08T16:55:31.548Z,1.40
2022-12-08T16:57:33.570Z,1.40
2022-12-08T16:59:35.363Z,1.40
2022-12-08T17:01:37.684Z,1.50
2022-12-08T17:03:41.166Z,1.40
2022-12-08T17:05:43.749Z,1.40
2022-12-08T17:07:47.147Z,1.60
2022-12-08T17:09:49.025Z,1.40
2022-12-08T17:11:52.180Z,1.30
2022-12-08T17:13:54.267Z,1.30
2022-12-08T17:15:58.756Z,1.40
2022-12-08T17:18:00.755Z,1.30
2022-12-08T17:20:06.736Z,1.40
2022-12-08T17:22:08.817Z,1.30
2022-12-08T17:24:11.172Z,1.40
2022-12-08T17:26:14.421Z,1.40
2022-12-08T17:28:31.205Z,1.40
2022-12-08T17:30:38.993Z,1.50
2022-12-08T17:32:41.518Z,1.40
2022-12-08T17:34:43.456Z,1.40
2022-12-08T17:36:46.661Z,1.40
2022-12-08T17:38:48.665Z,1.40
2022-12-08T17:40:54.048Z,1.40
2022-12-08T17:43:00.317Z,1.50
2022-12-08T17:45:02.308Z,1.50
2022-12-08T17:47:05.317Z,1.40
2022-12-08T17:49:26.987Z,1.30
2022-12-08T17:51:28.878Z,1.30
2022-12-08T17:53:35.762Z,1.30
2022-12-08T17:55:40.941Z,1.30
2022-12-08T17:57:43.001Z,1.30
2022-12-08T17:59:44.779Z,1.20
2022-12-08T18:01:46.715Z,1.20
2022-12-08T20:14:22.618Z,1.70
2022-12-08T20:16:24.649Z,1.60
2022-12-08T20:18:28.478Z,1.50
2022-12-08T20:20:30.393Z,1.50
2022-12-08T20:22:32.312Z,1.50
2022-12-08T20:24:35.544Z,1.60
2022-12-08T20:26:37.598Z,1.60
2022-12-08T20:28:39.494Z,1.60
2022-12-08T20:30:43.116Z,1.50
2022-12-08T20:32:45.632Z,1.50
2022-12-08T20:34:47.536Z,1.50
2022-12-08T20:36:49.477Z,1.60
2022-12-08T20:38:53.276Z,1.50
2022-12-08T20:40:56.429Z,1.50
2022-12-08T20:42:58.349Z,1.60
2022-12-08T20:45:00.247Z,1.50
2022-12-08T20:47:02.209Z,1.50
2022-12-08T20:49:04.619Z,1.50
2022-12-08T20:51:07.958Z,1.50
2022-12-08T20:53:09.923Z,1.50
2022-12-08T20:55:12.298Z,1.50
2022-12-08T20:57:14.516Z,1.60
2022-12-08T20:59:18.099Z,1.60
2022-12-08T21:01:22.557Z,1.50
2022-12-08T21:03:24.754Z,1.50
2022-12-08T21:05:28.002Z,1.40
2022-12-08T21:07:30.308Z,1.50
2022-12-08T21:09:32.200Z,1.50
2022-12-08T21:11:34.466Z,1.50
2022-12-08T21:13:39.421Z,1.50
2022-12-08T21:15:46.574Z,1.60
2022-12-08T21:17:48.883Z,1.60
2022-12-08T21:19:50.865Z,1.60
2022-12-08T21:21:52.812Z,1.60
2022-12-08T21:23:55.338Z,1.60
2022-12-08T21:25:57.647Z,1.60
2022-12-08T21:27:59.777Z,1.60
2022-12-08T21:30:01.708Z,1.50
2022-12-08T21:32:03.899Z,1.50
2022-12-08T21:34:06.186Z,1.60
2022-12-08T21:36:10.451Z,1.60
2022-12-08T21:38:12.418Z,1.60
2022-12-08T21:40:14.480Z,1.50
2022-12-08T21:42:35.565Z,1.50
2022-12-08T21:44:37.861Z,1.40
2022-12-08T21:46:40.133Z,1.50
2022-12-08T21:48:42.296Z,1.40
2022-12-08T21:50:44.519Z,1.50
2022-12-08T21:52:47.566Z,1.50
2022-12-08T21:54:49.507Z,1.40
2022-12-08T21:56:51.960Z,1.40
2022-12-08T21:58:55.258Z,1.50
2022-12-08T22:00:57.458Z,1.50
2022-12-08T22:03:00.009Z,1.50
2022-12-08T22:05:03.903Z,1.60
2022-12-08T22:07:09.775Z,1.60
2022-12-08T22:09:13.840Z,1.60
2022-12-08T22:11:16.480Z,1.50
2022-12-08T22:13:18.532Z,1.70
2022-12-08T22:15:20.813Z,1.60
2022-12-08T22:17:22.855Z,1.60
2022-12-08T22:19:25.104Z,1.50
2022-12-08T22:21:27.126Z,1.50
2022-12-08T22:23:29.255Z,1.50
2022-12-08T22:25:31.387Z,1.50
2022-12-08T22:27:33.833Z,1.50
2022-12-08T22:29:36.028Z,1.50
2022-12-08T22:31:40.558Z,1.50
2022-12-08T22:33:43.486Z,1.60
2022-12-08T22:35:54.515Z,1.60
2022-12-08T22:37:56.407Z,1.60
2022-12-08T22:39:58.568Z,1.60
2022-12-08T22:42:00.525Z,1.60
2022-12-08T22:44:06.499Z,1.60
2022-12-08T22:46:12.224Z,1.60
2022-12-08T22:48:15.106Z,1.60
2022-12-08T22:50:17.318Z,1.50
2022-12-08T22:52:19.308Z,1.50
2022-12-08T22:54:21.208Z,1.50
2022-12-08T22:56:23.117Z,1.60
2022-12-08T22:58:25.210Z,1.70
2022-12-08T23:00:27.209Z,1.50
2022-12-08T23:02:28.994Z,1.50
2022-12-08T23:04:31.248Z,1.50
2022-12-08T23:06:33.437Z,1.40
2022-12-08T23:08:35.882Z,1.40
2022-12-08T23:10:40.028Z,1.40
2022-12-08T23:12:42.039Z,1.40
2022-12-08T23:14:43.806Z,1.40
2022-12-08T23:16:45.982Z,1.50
2022-12-08T23:18:47.984Z,1.50
2022-12-08T23:20:49.826Z,1.60
2022-12-08T23:22:51.921Z,1.60
2022-12-08T23:24:54.000Z,1.60
2022-12-08T23:26:55.828Z,1.60
2022-12-08T23:28:58.592Z,1.50
2022-12-08T23:31:00.569Z,1.50
2022-12-08T23:33:02.440Z,1.50
2022-12-08T23:35:05.468Z,1.60
2022-12-08T23:37:07.693Z,1.60
2022-12-08T23:39:11.450Z,1.60
2022-12-08T23:41:15.097Z,1.60
2022-12-08T23:43:17.095Z,1.60
2022-12-08T23:45:19.000Z,1.70
2022-12-08T23:47:21.051Z,1.60
2022-12-08T23:49:23.606Z,1.60
2022-12-08T23:51:25.656Z,1.50
2022-12-08T23:53:28.916Z,1.60
2022-12-08T23:55:30.846Z,1.60
2022-12-08T23:57:32.807Z,1.60
2022-12-08T23:59:34.868Z,1.60
